| Date | Time | Temp. (oF) | Dew Point (oF) | Rel. Hum. (%) | Press. (in.) | Wind Dir. | Wind Speed (mph) | Hourly Rainfall (in.) |
|
|---|---|---|---|---|---|---|---|---|---|
| 1 | 08/22 | 00:00 | 62 | 62 | 100 | 30.13 | SW | 0 | 0.00 |
| 2 | 08/21 | 23:00 | 64 | 63 | 100 | 30.12 | SW | 0 | 0.00 |
| 3 | 08/21 | 22:00 | 66 | 63 | 93 | 30.12 | SSW | 0 | 0.00 |
| 4 | 08/21 | 21:00 | 68 | 64 | 89 | 30.09 | SSW | 0 | 0.00 |
| 5 | 08/21 | 20:00 | 73 | 60 | 66 | 30.06 | SW | 0 | 0.00 |
| 6 | 08/21 | 19:00 | 76 | 59 | 56 | 30.05 | WSW | 3 | 0.00 |
| 7 | 08/21 | 18:00 | 78 | 62 | 59 | 30.05 | SW | 4 | 0.00 |
| 8 | 08/21 | 17:00 | 79 | 59 | 52 | 30.05 | SSW | 2 | 0.00 |
| 9 | 08/21 | 16:00 | 79 | 61 | 56 | 30.05 | WSW | 4 | 0.00 |
| 10 | 08/21 | 15:00 | 80 | 64 | 59 | 30.07 | SW | 5 | 0.00 |
| 11 | 08/21 | 14:00 | 78 | 67 | 71 | 30.08 | NW | 3 | 0.00 |
| 12 | 08/21 | 13:00 | 75 | 68 | 80 | 30.09 | E | 2 | 0.00 |
| 13 | 08/21 | 12:00 | 71 | 67 | 90 | 30.10 | SW | 6 | 0.00 |
| 14 | 08/21 | 11:00 | 66 | 65 | 98 | 30.10 | NNE | 0 | 0.00 |
| 15 | 08/21 | 10:00 | 63 | 63 | 100 | 30.09 | NE | 4 | 0.00 |
| 16 | 08/21 | 09:00 | 62 | 62 | 100 | 30.08 | N | 0 | 0.00 |
| 17 | 08/21 | 08:00 | 62 | 62 | 100 | 30.07 | N | 4 | 0.00 |
| 18 | 08/21 | 07:00 | 61 | 60 | 100 | 30.06 | NNE | 2 | 0.00 |
| 19 | 08/21 | 06:00 | 61 | 60 | 100 | 30.04 | N | 3 | 0.00 |
| 20 | 08/21 | 05:00 | 60 | 59 | 100 | 30.02 | NNE | 0 | 0.00 |
| 21 | 08/21 | 04:00 | 59 | 59 | 100 | 30.03 | WNW | 0 | 0.00 |
| 22 | 08/21 | 03:00 | 60 | 59 | 100 | 30.01 | N | 0 | 0.00 |
| 23 | 08/21 | 02:00 | 60 | 59 | 100 | 30.00 | SSW | 0 | 0.00 |
| 24 | 08/21 | 01:00 | 60 | 59 | 100 | 30.01 | S | 0 | 0.00 |